Lewes Beach, Delaware
Current Conditions -  °F | °C
As of 11:28 PM on Tuesday 21 Oct 2014 (Local Time) from KGED Reporting Station
Thunderstorm Thunderstorm  
Wind Chill: 57°   Ceiling: 4100
Heat Index: 57°   Visibility: 4mi
Dew Point: 53°   Wind: 9mph
Humidity: 87%   Direction: 320°NW
Pressure: 29.87"   Gusts: NA
Location:  38.7339°N, 75.1733°W
Report Text: KGED 220328Z AUTO 32008KT 4SM TSRA BR FEW017 BKN041 OVC070 14/12 A2987 RMK AO2 LTG DSNT NW P0038 T01390117
Loading
Personal Weather Stations






























Interactive Weather Map New forecast layout! Learn more

10-Day Weather Forecast

Advertisements
Track Severe Weather on mobile